sensor_id;sensor_type;location;lat;lon;timestamp;P1;durP1;ratioP1;P2;durP2;ratioP2
13720;SDS011;6932;51.438;5.470;2023-01-23T00:01:24;17.53;;;10.10;;
13720;SDS011;6932;51.438;5.470;2023-01-23T00:03:56;17.33;;;11.00;;
13720;SDS011;6932;51.438;5.470;2023-01-23T00:06:22;15.97;;;10.30;;
13720;SDS011;6932;51.438;5.470;2023-01-23T00:08:49;18.13;;;10.67;;
13720;SDS011;6932;51.438;5.470;2023-01-23T00:11:16;16.37;;;10.80;;
13720;SDS011;6932;51.438;5.470;2023-01-23T00:13:48;18.17;;;11.57;;
13720;SDS011;6932;51.438;5.470;2023-01-23T00:16:14;16.80;;;10.70;;
13720;SDS011;6932;51.438;5.470;2023-01-23T00:18:44;16.93;;;10.30;;
13720;SDS011;6932;51.438;5.470;2023-01-23T00:21:13;16.30;;;10.27;;
13720;SDS011;6932;51.438;5.470;2023-01-23T00:23:42;18.23;;;10.33;;
13720;SDS011;6932;51.438;5.470;2023-01-23T00:26:11;16.70;;;11.07;;
13720;SDS011;6932;51.438;5.470;2023-01-23T00:28:44;18.73;;;10.90;;
13720;SDS011;6932;51.438;5.470;2023-01-23T00:31:12;16.13;;;10.30;;
13720;SDS011;6932;51.438;5.470;2023-01-23T00:33:43;17.97;;;10.77;;
13720;SDS011;6932;51.438;5.470;2023-01-23T00:36:11;16.13;;;10.40;;
13720;SDS011;6932;51.438;5.470;2023-01-23T00:38:39;17.23;;;10.93;;
13720;SDS011;6932;51.438;5.470;2023-01-23T00:41:06;16.83;;;10.30;;
13720;SDS011;6932;51.438;5.470;2023-01-23T00:43:33;15.57;;;10.30;;
13720;SDS011;6932;51.438;5.470;2023-01-23T00:45:59;17.63;;;10.50;;
13720;SDS011;6932;51.438;5.470;2023-01-23T00:48:25;16.70;;;10.53;;
13720;SDS011;6932;51.438;5.470;2023-01-23T00:50:50;17.53;;;10.40;;
13720;SDS011;6932;51.438;5.470;2023-01-23T00:53:16;17.03;;;10.97;;
13720;SDS011;6932;51.438;5.470;2023-01-23T00:55:42;15.70;;;10.13;;
13720;SDS011;6932;51.438;5.470;2023-01-23T00:58:08;18.50;;;11.10;;
13720;SDS011;6932;51.438;5.470;2023-01-23T01:00:35;16.50;;;10.53;;
13720;SDS011;6932;51.438;5.470;2023-01-23T01:03:02;18.73;;;10.67;;
13720;SDS011;6932;51.438;5.470;2023-01-23T01:05:29;20.47;;;10.90;;
13720;SDS011;6932;51.438;5.470;2023-01-23T01:07:55;17.70;;;10.60;;
13720;SDS011;6932;51.438;5.470;2023-01-23T01:10:21;18.83;;;10.80;;
13720;SDS011;6932;51.438;5.470;2023-01-23T01:12:47;17.83;;;11.10;;
13720;SDS011;6932;51.438;5.470;2023-01-23T01:15:13;18.33;;;10.77;;
13720;SDS011;6932;51.438;5.470;2023-01-23T01:17:39;19.33;;;10.70;;
13720;SDS011;6932;51.438;5.470;2023-01-23T01:20:05;19.93;;;11.37;;
13720;SDS011;6932;51.438;5.470;2023-01-23T01:22:32;17.13;;;10.67;;
13720;SDS011;6932;51.438;5.470;2023-01-23T01:24:58;16.60;;;10.50;;
13720;SDS011;6932;51.438;5.470;2023-01-23T01:27:24;17.13;;;10.53;;
13720;SDS011;6932;51.438;5.470;2023-01-23T01:29:50;17.30;;;11.03;;
13720;SDS011;6932;51.438;5.470;2023-01-23T01:32:15;18.40;;;10.67;;
13720;SDS011;6932;51.438;5.470;2023-01-23T01:34:41;17.07;;;10.20;;
13720;SDS011;6932;51.438;5.470;2023-01-23T01:37:07;19.00;;;11.67;;
13720;SDS011;6932;51.438;5.470;2023-01-23T01:39:33;17.40;;;10.67;;
13720;SDS011;6932;51.438;5.470;2023-01-23T01:41:58;15.90;;;9.93;;
13720;SDS011;6932;51.438;5.470;2023-01-23T01:44:24;17.50;;;10.07;;
13720;SDS011;6932;51.438;5.470;2023-01-23T01:46:50;16.53;;;10.13;;
13720;SDS011;6932;51.438;5.470;2023-01-23T01:49:24;18.33;;;10.00;;
13720;SDS011;6932;51.438;5.470;2023-01-23T01:51:58;17.60;;;10.93;;
13720;SDS011;6932;51.438;5.470;2023-01-23T01:57:13;17.23;;;10.13;;
13720;SDS011;6932;51.438;5.470;2023-01-23T02:00:00;17.10;;;10.23;;
13720;SDS011;6932;51.438;5.470;2023-01-23T02:05:18;17.40;;;10.43;;
13720;SDS011;6932;51.438;5.470;2023-01-23T02:11:17;16.70;;;10.33;;
13720;SDS011;6932;51.438;5.470;2023-01-23T02:13:43;17.67;;;10.70;;
13720;SDS011;6932;51.438;5.470;2023-01-23T02:16:14;17.93;;;10.53;;
13720;SDS011;6932;51.438;5.470;2023-01-23T02:18:48;15.40;;;10.13;;
13720;SDS011;6932;51.438;5.470;2023-01-23T02:21:20;18.10;;;10.47;;
13720;SDS011;6932;51.438;5.470;2023-01-23T02:26:48;17.70;;;10.93;;
13720;SDS011;6932;51.438;5.470;2023-01-23T02:29:14;17.33;;;10.30;;
13720;SDS011;6932;51.438;5.470;2023-01-23T02:31:43;15.83;;;10.10;;
13720;SDS011;6932;51.438;5.470;2023-01-23T02:34:10;20.23;;;10.53;;
13720;SDS011;6932;51.438;5.470;2023-01-23T02:36:38;18.27;;;10.70;;
13720;SDS011;6932;51.438;5.470;2023-01-23T02:39:09;16.70;;;10.10;;
13720;SDS011;6932;51.438;5.470;2023-01-23T02:41:41;17.00;;;10.60;;
13720;SDS011;6932;51.438;5.470;2023-01-23T02:47:01;16.67;;;10.30;;
13720;SDS011;6932;51.438;5.470;2023-01-23T02:49:36;17.97;;;10.40;;
13720;SDS011;6932;51.438;5.470;2023-01-23T02:52:07;17.73;;;10.83;;
13720;SDS011;6932;51.438;5.470;2023-01-23T02:54:33;17.53;;;10.50;;
13720;SDS011;6932;51.438;5.470;2023-01-23T02:56:59;16.70;;;10.20;;
13720;SDS011;6932;51.438;5.470;2023-01-23T02:59:25;16.20;;;10.20;;
13720;SDS011;6932;51.438;5.470;2023-01-23T03:02:10;15.63;;;9.83;;
13720;SDS011;6932;51.438;5.470;2023-01-23T03:04:36;16.53;;;10.43;;
13720;SDS011;6932;51.438;5.470;2023-01-23T03:07:02;17.50;;;10.90;;
13720;SDS011;6932;51.438;5.470;2023-01-23T03:09:27;17.13;;;10.63;;
13720;SDS011;6932;51.438;5.470;2023-01-23T03:11:53;19.47;;;11.30;;
13720;SDS011;6932;51.438;5.470;2023-01-23T03:14:20;16.43;;;10.43;;
13720;SDS011;6932;51.438;5.470;2023-01-23T03:16:47;18.23;;;10.40;;
13720;SDS011;6932;51.438;5.470;2023-01-23T03:19:18;17.33;;;10.27;;
13720;SDS011;6932;51.438;5.470;2023-01-23T03:21:49;18.23;;;10.67;;
13720;SDS011;6932;51.438;5.470;2023-01-23T03:24:16;16.73;;;10.13;;
13720;SDS011;6932;51.438;5.470;2023-01-23T03:26:45;16.87;;;10.47;;
13720;SDS011;6932;51.438;5.470;2023-01-23T03:29:13;17.90;;;10.90;;
13720;SDS011;6932;51.438;5.470;2023-01-23T03:32:08;16.03;;;10.03;;
13720;SDS011;6932;51.438;5.470;2023-01-23T03:34:36;17.40;;;10.23;;
13720;SDS011;6932;51.438;5.470;2023-01-23T03:37:03;16.30;;;10.33;;
13720;SDS011;6932;51.438;5.470;2023-01-23T03:39:31;17.73;;;10.53;;
13720;SDS011;6932;51.438;5.470;2023-01-23T03:42:17;16.17;;;10.43;;
13720;SDS011;6932;51.438;5.470;2023-01-23T03:44:43;19.17;;;10.50;;
13720;SDS011;6932;51.438;5.470;2023-01-23T03:47:09;18.07;;;10.70;;
13720;SDS011;6932;51.438;5.470;2023-01-23T03:49:35;16.60;;;10.10;;
13720;SDS011;6932;51.438;5.470;2023-01-23T03:52:01;16.07;;;10.30;;
13720;SDS011;6932;51.438;5.470;2023-01-23T03:54:27;18.00;;;10.57;;
13720;SDS011;6932;51.438;5.470;2023-01-23T03:56:53;16.30;;;10.20;;
13720;SDS011;6932;51.438;5.470;2023-01-23T03:59:19;17.23;;;10.67;;
13720;SDS011;6932;51.438;5.470;2023-01-23T04:01:45;17.63;;;10.40;;
13720;SDS011;6932;51.438;5.470;2023-01-23T04:04:12;17.60;;;10.37;;
13720;SDS011;6932;51.438;5.470;2023-01-23T04:06:37;18.80;;;10.80;;
13720;SDS011;6932;51.438;5.470;2023-01-23T04:09:04;18.87;;;10.60;;
13720;SDS011;6932;51.438;5.470;2023-01-23T04:11:30;18.80;;;10.50;;
13720;SDS011;6932;51.438;5.470;2023-01-23T04:13:55;16.90;;;10.83;;
13720;SDS011;6932;51.438;5.470;2023-01-23T04:16:21;20.17;;;11.10;;
13720;SDS011;6932;51.438;5.470;2023-01-23T04:18:48;17.87;;;10.47;;
13720;SDS011;6932;51.438;5.470;2023-01-23T04:21:15;18.93;;;10.60;;
13720;SDS011;6932;51.438;5.470;2023-01-23T04:23:41;17.20;;;10.60;;
13720;SDS011;6932;51.438;5.470;2023-01-23T04:26:07;18.23;;;10.87;;
13720;SDS011;6932;51.438;5.470;2023-01-23T04:28:33;16.23;;;9.80;;
13720;SDS011;6932;51.438;5.470;2023-01-23T04:30:58;16.57;;;10.40;;
13720;SDS011;6932;51.438;5.470;2023-01-23T04:33:27;17.07;;;10.53;;
13720;SDS011;6932;51.438;5.470;2023-01-23T04:35:54;17.73;;;10.83;;
13720;SDS011;6932;51.438;5.470;2023-01-23T04:38:23;17.67;;;10.53;;
13720;SDS011;6932;51.438;5.470;2023-01-23T04:40:50;25.60;;;11.73;;
13720;SDS011;6932;51.438;5.470;2023-01-23T04:43:17;18.40;;;10.77;;
13720;SDS011;6932;51.438;5.470;2023-01-23T04:45:43;17.73;;;10.63;;
13720;SDS011;6932;51.438;5.470;2023-01-23T04:48:10;16.73;;;10.37;;
13720;SDS011;6932;51.438;5.470;2023-01-23T04:50:37;17.03;;;10.07;;
13720;SDS011;6932;51.438;5.470;2023-01-23T04:53:03;18.17;;;11.10;;
13720;SDS011;6932;51.438;5.470;2023-01-23T04:55:30;16.30;;;10.47;;
13720;SDS011;6932;51.438;5.470;2023-01-23T04:57:56;17.73;;;10.73;;
13720;SDS011;6932;51.438;5.470;2023-01-23T05:00:22;17.27;;;10.50;;
13720;SDS011;6932;51.438;5.470;2023-01-23T05:02:48;18.13;;;10.80;;
13720;SDS011;6932;51.438;5.470;2023-01-23T05:05:14;18.10;;;10.77;;
13720;SDS011;6932;51.438;5.470;2023-01-23T05:07:42;17.93;;;10.67;;
13720;SDS011;6932;51.438;5.470;2023-01-23T05:10:08;17.83;;;10.90;;
13720;SDS011;6932;51.438;5.470;2023-01-23T05:12:35;19.67;;;10.90;;
13720;SDS011;6932;51.438;5.470;2023-01-23T05:15:01;17.63;;;10.83;;
13720;SDS011;6932;51.438;5.470;2023-01-23T05:17:26;19.00;;;10.80;;
13720;SDS011;6932;51.438;5.470;2023-01-23T05:19:52;18.73;;;10.93;;
13720;SDS011;6932;51.438;5.470;2023-01-23T05:22:18;19.13;;;11.23;;
13720;SDS011;6932;51.438;5.470;2023-01-23T05:24:46;16.63;;;10.43;;
13720;SDS011;6932;51.438;5.470;2023-01-23T05:27:12;16.77;;;9.93;;
13720;SDS011;6932;51.438;5.470;2023-01-23T05:29:39;18.23;;;11.13;;
13720;SDS011;6932;51.438;5.470;2023-01-23T05:32:04;17.13;;;10.03;;
13720;SDS011;6932;51.438;5.470;2023-01-23T05:34:30;16.97;;;10.57;;
13720;SDS011;6932;51.438;5.470;2023-01-23T05:36:56;18.67;;;11.47;;
13720;SDS011;6932;51.438;5.470;2023-01-23T05:39:22;17.20;;;10.40;;
13720;SDS011;6932;51.438;5.470;2023-01-23T05:41:48;16.73;;;10.57;;
13720;SDS011;6932;51.438;5.470;2023-01-23T05:44:13;20.30;;;11.03;;
13720;SDS011;6932;51.438;5.470;2023-01-23T05:46:39;18.77;;;10.97;;
13720;SDS011;6932;51.438;5.470;2023-01-23T05:49:05;16.60;;;10.23;;
13720;SDS011;6932;51.438;5.470;2023-01-23T05:51:31;17.67;;;10.60;;
13720;SDS011;6932;51.438;5.470;2023-01-23T05:53:58;18.83;;;10.83;;
13720;SDS011;6932;51.438;5.470;2023-01-23T05:56:25;17.50;;;10.13;;
13720;SDS011;6932;51.438;5.470;2023-01-23T05:58:52;18.77;;;10.67;;
13720;SDS011;6932;51.438;5.470;2023-01-23T06:01:18;17.30;;;10.60;;
13720;SDS011;6932;51.438;5.470;2023-01-23T06:03:45;18.13;;;10.60;;
13720;SDS011;6932;51.438;5.470;2023-01-23T06:06:11;17.70;;;10.33;;
13720;SDS011;6932;51.438;5.470;2023-01-23T06:08:38;17.73;;;10.47;;
13720;SDS011;6932;51.438;5.470;2023-01-23T06:11:03;17.97;;;10.37;;
13720;SDS011;6932;51.438;5.470;2023-01-23T06:13:30;17.30;;;10.90;;
13720;SDS011;6932;51.438;5.470;2023-01-23T06:15:56;18.67;;;10.87;;
13720;SDS011;6932;51.438;5.470;2023-01-23T06:18:23;17.43;;;10.73;;
13720;SDS011;6932;51.438;5.470;2023-01-23T06:20:49;17.43;;;11.13;;
13720;SDS011;6932;51.438;5.470;2023-01-23T06:23:21;19.93;;;11.40;;
13720;SDS011;6932;51.438;5.470;2023-01-23T06:25:47;17.07;;;11.00;;
13720;SDS011;6932;51.438;5.470;2023-01-23T06:28:12;19.03;;;11.50;;
13720;SDS011;6932;51.438;5.470;2023-01-23T06:30:38;16.57;;;10.53;;
13720;SDS011;6932;51.438;5.470;2023-01-23T06:33:04;17.67;;;10.83;;
13720;SDS011;6932;51.438;5.470;2023-01-23T06:35:30;17.33;;;10.67;;
13720;SDS011;6932;51.438;5.470;2023-01-23T06:37:55;17.80;;;10.77;;
13720;SDS011;6932;51.438;5.470;2023-01-23T06:40:21;17.10;;;10.23;;
13720;SDS011;6932;51.438;5.470;2023-01-23T06:42:47;17.30;;;10.93;;
13720;SDS011;6932;51.438;5.470;2023-01-23T06:45:14;17.43;;;10.53;;
13720;SDS011;6932;51.438;5.470;2023-01-23T06:47:40;18.23;;;11.20;;
13720;SDS011;6932;51.438;5.470;2023-01-23T06:50:06;18.53;;;10.60;;
13720;SDS011;6932;51.438;5.470;2023-01-23T06:52:33;18.10;;;10.60;;
13720;SDS011;6932;51.438;5.470;2023-01-23T06:54:59;17.87;;;10.50;;
13720;SDS011;6932;51.438;5.470;2023-01-23T06:57:24;19.47;;;11.17;;
13720;SDS011;6932;51.438;5.470;2023-01-23T06:59:50;16.77;;;10.27;;
13720;SDS011;6932;51.438;5.470;2023-01-23T07:02:16;17.37;;;10.77;;
13720;SDS011;6932;51.438;5.470;2023-01-23T07:04:41;19.20;;;11.50;;
13720;SDS011;6932;51.438;5.470;2023-01-23T07:07:07;17.23;;;10.40;;
13720;SDS011;6932;51.438;5.470;2023-01-23T07:09:33;17.17;;;10.50;;
13720;SDS011;6932;51.438;5.470;2023-01-23T07:11:59;17.83;;;10.77;;
13720;SDS011;6932;51.438;5.470;2023-01-23T07:14:24;17.70;;;10.83;;
13720;SDS011;6932;51.438;5.470;2023-01-23T07:16:52;17.93;;;11.07;;
13720;SDS011;6932;51.438;5.470;2023-01-23T07:19:19;18.53;;;11.27;;
13720;SDS011;6932;51.438;5.470;2023-01-23T07:21:48;18.13;;;10.97;;
13720;SDS011;6932;51.438;5.470;2023-01-23T07:24:14;16.60;;;10.33;;
13720;SDS011;6932;51.438;5.470;2023-01-23T07:26:40;16.53;;;10.33;;
13720;SDS011;6932;51.438;5.470;2023-01-23T07:29:06;17.07;;;10.83;;
13720;SDS011;6932;51.438;5.470;2023-01-23T07:31:33;17.07;;;10.70;;
13720;SDS011;6932;51.438;5.470;2023-01-23T07:33:59;18.40;;;11.23;;
13720;SDS011;6932;51.438;5.470;2023-01-23T07:36:28;16.00;;;10.43;;
13720;SDS011;6932;51.438;5.470;2023-01-23T07:38:54;17.67;;;10.80;;
13720;SDS011;6932;51.438;5.470;2023-01-23T07:41:21;17.00;;;10.93;;
13720;SDS011;6932;51.438;5.470;2023-01-23T07:43:46;17.97;;;11.07;;
13720;SDS011;6932;51.438;5.470;2023-01-23T07:46:12;17.63;;;11.17;;
13720;SDS011;6932;51.438;5.470;2023-01-23T07:48:38;16.70;;;10.53;;
13720;SDS011;6932;51.438;5.470;2023-01-23T07:51:04;19.60;;;11.90;;
13720;SDS011;6932;51.438;5.470;2023-01-23T07:53:30;16.60;;;10.50;;
13720;SDS011;6932;51.438;5.470;2023-01-23T07:55:57;18.37;;;10.57;;
13720;SDS011;6932;51.438;5.470;2023-01-23T07:58:23;18.07;;;11.03;;
13720;SDS011;6932;51.438;5.470;2023-01-23T08:00:48;16.67;;;10.57;;
13720;SDS011;6932;51.438;5.470;2023-01-23T08:03:14;16.10;;;9.90;;
13720;SDS011;6932;51.438;5.470;2023-01-23T08:05:40;18.27;;;11.20;;
13720;SDS011;6932;51.438;5.470;2023-01-23T08:08:06;16.63;;;10.27;;
13720;SDS011;6932;51.438;5.470;2023-01-23T08:10:33;16.03;;;10.27;;
13720;SDS011;6932;51.438;5.470;2023-01-23T08:12:59;16.07;;;10.23;;
13720;SDS011;6932;51.438;5.470;2023-01-23T08:15:24;17.53;;;10.10;;
13720;SDS011;6932;51.438;5.470;2023-01-23T08:17:50;16.17;;;10.07;;
13720;SDS011;6932;51.438;5.470;2023-01-23T08:20:17;16.87;;;10.07;;
13720;SDS011;6932;51.438;5.470;2023-01-23T08:22:43;16.00;;;10.40;;
13720;SDS011;6932;51.438;5.470;2023-01-23T08:25:09;17.13;;;9.83;;
13720;SDS011;6932;51.438;5.470;2023-01-23T08:27:36;17.33;;;10.57;;
13720;SDS011;6932;51.438;5.470;2023-01-23T08:30:02;16.77;;;10.30;;
13720;SDS011;6932;51.438;5.470;2023-01-23T08:32:29;16.10;;;10.10;;
13720;SDS011;6932;51.438;5.470;2023-01-23T08:34:55;17.10;;;10.00;;
13720;SDS011;6932;51.438;5.470;2023-01-23T08:37:21;16.57;;;11.03;;
13720;SDS011;6932;51.438;5.470;2023-01-23T08:39:47;16.60;;;10.03;;
13720;SDS011;6932;51.438;5.470;2023-01-23T08:42:12;17.13;;;10.57;;
13720;SDS011;6932;51.438;5.470;2023-01-23T08:44:38;16.87;;;10.37;;
13720;SDS011;6932;51.438;5.470;2023-01-23T08:47:04;16.37;;;10.50;;
13720;SDS011;6932;51.438;5.470;2023-01-23T08:49:29;16.20;;;10.33;;
13720;SDS011;6932;51.438;5.470;2023-01-23T08:51:55;17.27;;;10.50;;
13720;SDS011;6932;51.438;5.470;2023-01-23T08:54:22;17.97;;;10.43;;
13720;SDS011;6932;51.438;5.470;2023-01-23T08:56:48;16.63;;;10.03;;
13720;SDS011;6932;51.438;5.470;2023-01-23T08:59:14;18.13;;;9.97;;
13720;SDS011;6932;51.438;5.470;2023-01-23T09:01:40;16.07;;;10.53;;
13720;SDS011;6932;51.438;5.470;2023-01-23T09:04:05;18.47;;;11.10;;
13720;SDS011;6932;51.438;5.470;2023-01-23T09:06:31;16.77;;;10.60;;
13720;SDS011;6932;51.438;5.470;2023-01-23T09:08:57;19.33;;;11.10;;
13720;SDS011;6932;51.438;5.470;2023-01-23T09:11:23;18.33;;;10.87;;
13720;SDS011;6932;51.438;5.470;2023-01-23T09:13:49;15.93;;;10.20;;
13720;SDS011;6932;51.438;5.470;2023-01-23T09:16:15;16.97;;;10.13;;
13720;SDS011;6932;51.438;5.470;2023-01-23T09:18:41;15.87;;;10.33;;
13720;SDS011;6932;51.438;5.470;2023-01-23T09:21:11;17.27;;;10.43;;
13720;SDS011;6932;51.438;5.470;2023-01-23T09:23:40;18.43;;;10.53;;
13720;SDS011;6932;51.438;5.470;2023-01-23T09:26:07;17.83;;;10.30;;
13720;SDS011;6932;51.438;5.470;2023-01-23T09:28:36;16.80;;;10.00;;
13720;SDS011;6932;51.438;5.470;2023-01-23T09:31:06;16.13;;;10.37;;
13720;SDS011;6932;51.438;5.470;2023-01-23T09:33:37;18.47;;;11.13;;
13720;SDS011;6932;51.438;5.470;2023-01-23T09:36:05;16.47;;;10.57;;
13720;SDS011;6932;51.438;5.470;2023-01-23T09:38:31;16.57;;;9.73;;
13720;SDS011;6932;51.438;5.470;2023-01-23T09:40:58;16.67;;;10.47;;
13720;SDS011;6932;51.438;5.470;2023-01-23T09:46:14;18.37;;;10.40;;
13720;SDS011;6932;51.438;5.470;2023-01-23T09:48:59;16.47;;;10.47;;
13720;SDS011;6932;51.438;5.470;2023-01-23T09:54:07;16.17;;;9.87;;
13720;SDS011;6932;51.438;5.470;2023-01-23T09:57:50;16.73;;;10.30;;
13720;SDS011;6932;51.438;5.470;2023-01-23T10:00:12;15.50;;;10.07;;
13720;SDS011;6932;51.438;5.470;2023-01-23T10:02:57;17.43;;;10.57;;
13720;SDS011;6932;51.438;5.470;2023-01-23T10:05:30;16.40;;;10.60;;
13720;SDS011;6932;51.438;5.470;2023-01-23T10:11:44;14.93;;;9.47;;
13720;SDS011;6932;51.438;5.470;2023-01-23T10:26:03;16.33;;;10.40;;
13720;SDS011;6932;51.438;5.470;2023-01-23T10:28:42;16.27;;;10.60;;
13720;SDS011;6932;51.438;5.470;2023-01-23T10:33:53;16.70;;;11.00;;
13720;SDS011;6932;51.438;5.470;2023-01-23T10:40:02;15.30;;;9.97;;
13720;SDS011;6932;51.438;5.470;2023-01-23T10:42:38;15.57;;;10.27;;
13720;SDS011;6932;51.438;5.470;2023-01-23T10:45:04;15.77;;;9.90;;
13720;SDS011;6932;51.438;5.470;2023-01-23T10:47:36;16.33;;;10.33;;
13720;SDS011;6932;51.438;5.470;2023-01-23T10:50:08;17.57;;;10.73;;
13720;SDS011;6932;51.438;5.470;2023-01-23T10:52:37;16.53;;;10.10;;
13720;SDS011;6932;51.438;5.470;2023-01-23T10:57:46;16.77;;;10.47;;
13720;SDS011;6932;51.438;5.470;2023-01-23T11:00:19;16.43;;;10.30;;
13720;SDS011;6932;51.438;5.470;2023-01-23T11:03:16;16.37;;;10.20;;
13720;SDS011;6932;51.438;5.470;2023-01-23T11:13:44;16.23;;;10.87;;
13720;SDS011;6932;51.438;5.470;2023-01-23T11:16:17;15.50;;;10.20;;
13720;SDS011;6932;51.438;5.470;2023-01-23T11:18:49;15.33;;;10.53;;
13720;SDS011;6932;51.438;5.470;2023-01-23T11:21:37;16.57;;;10.63;;
13720;SDS011;6932;51.438;5.470;2023-01-23T11:26:57;16.37;;;10.53;;
13720;SDS011;6932;51.438;5.470;2023-01-23T11:29:29;16.30;;;10.67;;
13720;SDS011;6932;51.438;5.470;2023-01-23T11:32:11;15.93;;;10.33;;
13720;SDS011;6932;51.438;5.470;2023-01-23T11:34:40;15.47;;;9.90;;
13720;SDS011;6932;51.438;5.470;2023-01-23T11:37:18;14.60;;;10.10;;
13720;SDS011;6932;51.438;5.470;2023-01-23T11:42:40;15.37;;;10.53;;
13720;SDS011;6932;51.438;5.470;2023-01-23T11:51:02;14.30;;;9.60;;
13720;SDS011;6932;51.438;5.470;2023-01-23T11:54:11;15.27;;;9.60;;
13720;SDS011;6932;51.438;5.470;2023-01-23T12:02:44;15.23;;;9.20;;
13720;SDS011;6932;51.438;5.470;2023-01-23T12:05:51;15.90;;;9.70;;
13720;SDS011;6932;51.438;5.470;2023-01-23T12:08:44;14.87;;;9.27;;
13720;SDS011;6932;51.438;5.470;2023-01-23T12:11:31;14.60;;;9.17;;
13720;SDS011;6932;51.438;5.470;2023-01-23T12:14:26;14.53;;;8.97;;
13720;SDS011;6932;51.438;5.470;2023-01-23T12:17:06;14.53;;;9.23;;
13720;SDS011;6932;51.438;5.470;2023-01-23T12:20:27;15.43;;;10.00;;
13720;SDS011;6932;51.438;5.470;2023-01-23T12:23:44;14.30;;;8.90;;
13720;SDS011;6932;51.438;5.470;2023-01-23T12:27:05;15.13;;;9.37;;
13720;SDS011;6932;51.438;5.470;2023-01-23T12:35:47;14.00;;;8.80;;
13720;SDS011;6932;51.438;5.470;2023-01-23T12:39:03;14.73;;;9.37;;
13720;SDS011;6932;51.438;5.470;2023-01-23T12:41:44;13.83;;;8.80;;
13720;SDS011;6932;51.438;5.470;2023-01-23T12:44:17;14.50;;;9.00;;
13720;SDS011;6932;51.438;5.470;2023-01-23T12:47:04;14.57;;;9.17;;
13720;SDS011;6932;51.438;5.470;2023-01-23T12:49:45;14.50;;;9.20;;
13720;SDS011;6932;51.438;5.470;2023-01-23T12:52:32;14.50;;;9.03;;
13720;SDS011;6932;51.438;5.470;2023-01-23T12:57:50;14.17;;;9.13;;
13720;SDS011;6932;51.438;5.470;2023-01-23T13:09:08;14.07;;;8.67;;
13720;SDS011;6932;51.438;5.470;2023-01-23T13:11:52;15.07;;;9.97;;
13720;SDS011;6932;51.438;5.470;2023-01-23T13:14:47;14.10;;;8.80;;
13720;SDS011;6932;51.438;5.470;2023-01-23T13:20:28;13.90;;;8.20;;
13720;SDS011;6932;51.438;5.470;2023-01-23T13:23:32;14.73;;;8.90;;
13720;SDS011;6932;51.438;5.470;2023-01-23T13:26:10;13.03;;;8.07;;
13720;SDS011;6932;51.438;5.470;2023-01-23T13:32:16;13.73;;;8.77;;
13720;SDS011;6932;51.438;5.470;2023-01-23T13:34:51;14.07;;;9.07;;
13720;SDS011;6932;51.438;5.470;2023-01-23T13:40:17;14.53;;;8.70;;
13720;SDS011;6932;51.438;5.470;2023-01-23T13:42:48;13.50;;;8.70;;
13720;SDS011;6932;51.438;5.470;2023-01-23T13:45:27;13.90;;;8.37;;
13720;SDS011;6932;51.438;5.470;2023-01-23T13:51:24;13.67;;;8.03;;
13720;SDS011;6932;51.438;5.470;2023-01-23T13:53:50;13.10;;;8.23;;
13720;SDS011;6932;51.438;5.470;2023-01-23T13:56:37;14.13;;;8.30;;
13720;SDS011;6932;51.438;5.470;2023-01-23T13:59:07;13.47;;;7.90;;
13720;SDS011;6932;51.438;5.470;2023-01-23T14:02:00;12.00;;;7.80;;
13720;SDS011;6932;51.438;5.470;2023-01-23T14:05:13;12.40;;;8.07;;
13720;SDS011;6932;51.438;5.470;2023-01-23T14:07:47;12.33;;;7.67;;
13720;SDS011;6932;51.438;5.470;2023-01-23T14:12:59;12.03;;;7.20;;
13720;SDS011;6932;51.438;5.470;2023-01-23T14:15:34;12.87;;;7.47;;
13720;SDS011;6932;51.438;5.470;2023-01-23T14:18:27;13.33;;;7.80;;
13720;SDS011;6932;51.438;5.470;2023-01-23T14:21:01;12.87;;;7.40;;
13720;SDS011;6932;51.438;5.470;2023-01-23T14:23:35;12.63;;;6.87;;
13720;SDS011;6932;51.438;5.470;2023-01-23T14:26:05;12.57;;;7.60;;
13720;SDS011;6932;51.438;5.470;2023-01-23T14:28:38;13.23;;;7.80;;
13720;SDS011;6932;51.438;5.470;2023-01-23T14:31:05;13.13;;;7.20;;
13720;SDS011;6932;51.438;5.470;2023-01-23T14:33:44;13.13;;;8.03;;
13720;SDS011;6932;51.438;5.470;2023-01-23T14:36:12;12.53;;;7.93;;
13720;SDS011;6932;51.438;5.470;2023-01-23T14:38:42;13.77;;;8.23;;
13720;SDS011;6932;51.438;5.470;2023-01-23T14:41:11;12.83;;;8.20;;
13720;SDS011;6932;51.438;5.470;2023-01-23T14:43:38;13.23;;;7.77;;
13720;SDS011;6932;51.438;5.470;2023-01-23T14:46:09;13.53;;;8.10;;
13720;SDS011;6932;51.438;5.470;2023-01-23T14:48:40;15.10;;;8.83;;
13720;SDS011;6932;51.438;5.470;2023-01-23T14:51:23;13.83;;;8.57;;
13720;SDS011;6932;51.438;5.470;2023-01-23T14:53:55;14.37;;;8.30;;
13720;SDS011;6932;51.438;5.470;2023-01-23T14:56:31;13.03;;;8.50;;
13720;SDS011;6932;51.438;5.470;2023-01-23T14:59:01;13.37;;;8.13;;
13720;SDS011;6932;51.438;5.470;2023-01-23T15:01:32;14.73;;;9.40;;
13720;SDS011;6932;51.438;5.470;2023-01-23T15:03:59;14.20;;;8.10;;
13720;SDS011;6932;51.438;5.470;2023-01-23T15:06:32;13.73;;;8.40;;
13720;SDS011;6932;51.438;5.470;2023-01-23T15:09:07;13.47;;;8.10;;
13720;SDS011;6932;51.438;5.470;2023-01-23T15:11:41;13.90;;;8.30;;
13720;SDS011;6932;51.438;5.470;2023-01-23T15:14:22;14.73;;;9.23;;
13720;SDS011;6932;51.438;5.470;2023-01-23T15:17:04;13.70;;;8.10;;
13720;SDS011;6932;51.438;5.470;2023-01-23T15:19:38;14.50;;;8.80;;
13720;SDS011;6932;51.438;5.470;2023-01-23T15:24:52;14.17;;;8.83;;
13720;SDS011;6932;51.438;5.470;2023-01-23T15:27:24;13.63;;;8.70;;
13720;SDS011;6932;51.438;5.470;2023-01-23T15:33:02;13.67;;;8.90;;
13720;SDS011;6932;51.438;5.470;2023-01-23T15:35:34;14.07;;;8.40;;
13720;SDS011;6932;51.438;5.470;2023-01-23T15:38:02;12.87;;;7.70;;
13720;SDS011;6932;51.438;5.470;2023-01-23T15:40:30;12.73;;;7.90;;
13720;SDS011;6932;51.438;5.470;2023-01-23T15:43:00;13.10;;;7.80;;
13720;SDS011;6932;51.438;5.470;2023-01-23T15:45:38;12.77;;;8.30;;
13720;SDS011;6932;51.438;5.470;2023-01-23T15:48:04;12.80;;;7.83;;
13720;SDS011;6932;51.438;5.470;2023-01-23T15:50:30;12.23;;;7.63;;
13720;SDS011;6932;51.438;5.470;2023-01-23T15:52:56;12.93;;;8.07;;
13720;SDS011;6932;51.438;5.470;2023-01-23T15:55:23;11.80;;;7.33;;
13720;SDS011;6932;51.438;5.470;2023-01-23T15:57:51;11.30;;;7.37;;
13720;SDS011;6932;51.438;5.470;2023-01-23T16:00:21;12.17;;;7.40;;
13720;SDS011;6932;51.438;5.470;2023-01-23T16:02:52;12.23;;;7.83;;
13720;SDS011;6932;51.438;5.470;2023-01-23T16:05:20;11.27;;;6.73;;
13720;SDS011;6932;51.438;5.470;2023-01-23T16:07:53;11.40;;;7.03;;
13720;SDS011;6932;51.438;5.470;2023-01-23T16:10:22;12.13;;;7.53;;
13720;SDS011;6932;51.438;5.470;2023-01-23T16:12:53;12.97;;;7.37;;
13720;SDS011;6932;51.438;5.470;2023-01-23T16:15:25;11.63;;;6.73;;
13720;SDS011;6932;51.438;5.470;2023-01-23T16:17:54;12.40;;;7.47;;
13720;SDS011;6932;51.438;5.470;2023-01-23T16:20:31;12.03;;;6.93;;
13720;SDS011;6932;51.438;5.470;2023-01-23T16:23:05;12.80;;;7.73;;
13720;SDS011;6932;51.438;5.470;2023-01-23T16:25:37;11.70;;;6.93;;
13720;SDS011;6932;51.438;5.470;2023-01-23T16:28:25;12.00;;;7.23;;
13720;SDS011;6932;51.438;5.470;2023-01-23T16:30:50;13.83;;;7.20;;
13720;SDS011;6932;51.438;5.470;2023-01-23T16:33:17;12.63;;;7.67;;
13720;SDS011;6932;51.438;5.470;2023-01-23T16:35:44;11.80;;;7.13;;
13720;SDS011;6932;51.438;5.470;2023-01-23T16:38:21;11.53;;;7.20;;
13720;SDS011;6932;51.438;5.470;2023-01-23T16:40:51;13.70;;;7.77;;
13720;SDS011;6932;51.438;5.470;2023-01-23T16:43:19;12.97;;;7.73;;
13720;SDS011;6932;51.438;5.470;2023-01-23T16:45:46;13.63;;;8.23;;
13720;SDS011;6932;51.438;5.470;2023-01-23T16:48:12;12.27;;;7.93;;